sensor_id;sensor_type;location;lat;lon;timestamp;noise_LAeq;noise_LA_min;noise_LA_max;noise_LA01;noise_LA95
41704;Laerm;861;48.808;9.006;2023-04-03T00:01:19;34.42;32.96;35.72;;
41704;Laerm;861;48.808;9.006;2023-04-03T00:03:47;34.41;33.01;35.73;;
41704;Laerm;861;48.808;9.006;2023-04-03T00:06:14;34.42;33.07;35.66;;
41704;Laerm;861;48.808;9.006;2023-04-03T00:08:41;34.40;33.02;35.68;;
41704;Laerm;861;48.808;9.006;2023-04-03T00:11:10;34.41;33.16;35.54;;
41704;Laerm;861;48.808;9.006;2023-04-03T00:13:38;34.42;33.27;35.64;;
41704;Laerm;861;48.808;9.006;2023-04-03T00:16:09;34.42;33.26;35.72;;
41704;Laerm;861;48.808;9.006;2023-04-03T00:18:38;34.42;32.94;35.75;;
41704;Laerm;861;48.808;9.006;2023-04-03T00:21:10;34.43;33.03;35.64;;
41704;Laerm;861;48.808;9.006;2023-04-03T00:23:38;34.42;33.24;35.66;;
41704;Laerm;861;48.808;9.006;2023-04-03T00:26:05;34.43;32.94;35.78;;
41704;Laerm;861;48.808;9.006;2023-04-03T00:28:32;34.44;32.97;35.80;;
41704;Laerm;861;48.808;9.006;2023-04-03T00:30:59;34.43;32.96;35.60;;
41704;Laerm;861;48.808;9.006;2023-04-03T00:33:26;34.43;32.91;35.79;;
41704;Laerm;861;48.808;9.006;2023-04-03T00:35:52;34.43;33.04;35.87;;
41704;Laerm;861;48.808;9.006;2023-04-03T00:38:19;34.44;33.21;35.92;;
41704;Laerm;861;48.808;9.006;2023-04-03T00:40:49;34.43;33.08;35.76;;
41704;Laerm;861;48.808;9.006;2023-04-03T00:43:25;34.44;32.96;35.58;;
41704;Laerm;861;48.808;9.006;2023-04-03T00:45:58;34.43;33.00;35.93;;
41704;Laerm;861;48.808;9.006;2023-04-03T00:48:47;34.42;33.10;35.60;;
41704;Laerm;861;48.808;9.006;2023-04-03T00:51:24;34.43;32.93;35.71;;
41704;Laerm;861;48.808;9.006;2023-04-03T00:54:05;34.45;33.26;35.65;;
41704;Laerm;861;48.808;9.006;2023-04-03T00:56:36;34.44;33.12;35.66;;
41704;Laerm;861;48.808;9.006;2023-04-03T00:59:16;34.43;33.10;35.56;;
41704;Laerm;861;48.808;9.006;2023-04-03T01:01:49;34.43;33.12;35.53;;
41704;Laerm;861;48.808;9.006;2023-04-03T01:04:34;34.43;32.77;35.60;;
41704;Laerm;861;48.808;9.006;2023-04-03T01:07:20;34.45;33.21;35.82;;
41704;Laerm;861;48.808;9.006;2023-04-03T01:09:57;34.44;33.19;35.61;;
41704;Laerm;861;48.808;9.006;2023-04-03T01:12:35;34.44;33.23;35.75;;
41704;Laerm;861;48.808;9.006;2023-04-03T01:17:49;34.43;33.01;35.65;;
41704;Laerm;861;48.808;9.006;2023-04-03T01:26:16;34.42;33.03;35.72;;
41704;Laerm;861;48.808;9.006;2023-04-03T01:28:42;34.42;33.07;35.58;;
41704;Laerm;861;48.808;9.006;2023-04-03T01:34:11;34.43;33.08;35.59;;
41704;Laerm;861;48.808;9.006;2023-04-03T01:36:38;34.43;33.22;35.80;;
41704;Laerm;861;48.808;9.006;2023-04-03T01:39:05;34.42;32.92;35.64;;
41704;Laerm;861;48.808;9.006;2023-04-03T01:41:33;34.43;33.07;35.85;;
41704;Laerm;861;48.808;9.006;2023-04-03T01:43:59;34.43;32.93;35.52;;
41704;Laerm;861;48.808;9.006;2023-04-03T01:46:27;34.44;33.02;35.54;;
41704;Laerm;861;48.808;9.006;2023-04-03T01:48:54;34.42;33.04;35.62;;
41704;Laerm;861;48.808;9.006;2023-04-03T01:51:20;34.43;33.10;35.57;;
41704;Laerm;861;48.808;9.006;2023-04-03T01:53:47;34.43;33.10;35.76;;
41704;Laerm;861;48.808;9.006;2023-04-03T01:56:14;34.45;33.23;35.69;;
41704;Laerm;861;48.808;9.006;2023-04-03T01:58:41;34.46;33.25;35.62;;
41704;Laerm;861;48.808;9.006;2023-04-03T02:01:07;34.46;33.21;35.72;;
41704;Laerm;861;48.808;9.006;2023-04-03T02:03:34;34.46;33.19;35.66;;
41704;Laerm;861;48.808;9.006;2023-04-03T02:06:01;34.45;32.96;35.51;;
41704;Laerm;861;48.808;9.006;2023-04-03T02:08:27;34.46;33.19;35.69;;
41704;Laerm;861;48.808;9.006;2023-04-03T02:10:54;34.45;33.13;35.78;;
41704;Laerm;861;48.808;9.006;2023-04-03T02:13:21;34.45;33.24;35.50;;
41704;Laerm;861;48.808;9.006;2023-04-03T02:15:48;34.45;33.17;35.90;;
41704;Laerm;861;48.808;9.006;2023-04-03T02:18:15;34.44;33.09;35.49;;
41704;Laerm;861;48.808;9.006;2023-04-03T02:20:42;34.45;33.17;35.71;;
41704;Laerm;861;48.808;9.006;2023-04-03T02:23:08;34.47;33.17;35.62;;
41704;Laerm;861;48.808;9.006;2023-04-03T02:25:35;34.47;33.15;35.67;;
41704;Laerm;861;48.808;9.006;2023-04-03T02:28:02;34.47;33.09;35.75;;
41704;Laerm;861;48.808;9.006;2023-04-03T02:30:28;34.48;33.28;35.87;;
41704;Laerm;861;48.808;9.006;2023-04-03T02:32:55;34.47;33.18;35.58;;
41704;Laerm;861;48.808;9.006;2023-04-03T02:35:22;34.48;33.09;35.49;;
41704;Laerm;861;48.808;9.006;2023-04-03T02:37:49;34.48;33.28;35.54;;
41704;Laerm;861;48.808;9.006;2023-04-03T02:40:43;34.46;33.17;35.88;;
41704;Laerm;861;48.808;9.006;2023-04-03T02:43:10;34.49;33.12;35.83;;
41704;Laerm;861;48.808;9.006;2023-04-03T02:45:36;34.48;33.11;35.72;;
41704;Laerm;861;48.808;9.006;2023-04-03T02:48:03;34.48;32.87;35.73;;
41704;Laerm;861;48.808;9.006;2023-04-03T02:50:30;34.46;33.17;35.76;;
41704;Laerm;861;48.808;9.006;2023-04-03T02:52:57;34.49;33.28;35.83;;
41704;Laerm;861;48.808;9.006;2023-04-03T02:55:23;34.48;33.11;35.70;;
41704;Laerm;861;48.808;9.006;2023-04-03T02:57:50;34.48;33.26;35.92;;
41704;Laerm;861;48.808;9.006;2023-04-03T03:00:17;34.47;32.77;36.02;;
41704;Laerm;861;48.808;9.006;2023-04-03T03:02:44;34.45;32.74;35.69;;
41704;Laerm;861;48.808;9.006;2023-04-03T03:05:10;34.48;33.32;35.87;;
41704;Laerm;861;48.808;9.006;2023-04-03T03:07:37;34.47;33.01;35.58;;
41704;Laerm;861;48.808;9.006;2023-04-03T03:10:04;34.47;33.16;35.61;;
41704;Laerm;861;48.808;9.006;2023-04-03T03:12:31;34.47;33.16;35.69;;
41704;Laerm;861;48.808;9.006;2023-04-03T03:14:57;34.46;33.15;35.63;;
41704;Laerm;861;48.808;9.006;2023-04-03T03:17:27;34.47;33.03;35.78;;
41704;Laerm;861;48.808;9.006;2023-04-03T03:19:53;34.47;33.02;35.64;;
41704;Laerm;861;48.808;9.006;2023-04-03T03:22:20;34.48;33.14;35.71;;
41704;Laerm;861;48.808;9.006;2023-04-03T03:24:47;34.48;33.22;35.74;;
41704;Laerm;861;48.808;9.006;2023-04-03T03:27:17;34.47;33.25;35.68;;
41704;Laerm;861;48.808;9.006;2023-04-03T03:29:44;34.48;33.21;35.84;;
41704;Laerm;861;48.808;9.006;2023-04-03T03:32:10;34.48;33.15;35.84;;
41704;Laerm;861;48.808;9.006;2023-04-03T03:34:37;34.49;33.20;35.73;;
41704;Laerm;861;48.808;9.006;2023-04-03T03:37:04;34.48;33.07;35.61;;
41704;Laerm;861;48.808;9.006;2023-04-03T03:39:31;34.48;32.82;35.64;;
41704;Laerm;861;48.808;9.006;2023-04-03T03:41:57;34.48;33.26;35.73;;
41704;Laerm;861;48.808;9.006;2023-04-03T03:44:24;34.48;33.20;35.82;;
41704;Laerm;861;48.808;9.006;2023-04-03T03:46:50;34.47;32.87;35.69;;
41704;Laerm;861;48.808;9.006;2023-04-03T03:49:17;34.48;33.16;35.98;;
41704;Laerm;861;48.808;9.006;2023-04-03T03:51:43;34.46;33.16;35.58;;
41704;Laerm;861;48.808;9.006;2023-04-03T03:54:10;34.44;33.05;35.69;;
41704;Laerm;861;48.808;9.006;2023-04-03T03:56:37;34.45;33.17;35.62;;
41704;Laerm;861;48.808;9.006;2023-04-03T03:59:03;34.45;33.05;35.78;;
41704;Laerm;861;48.808;9.006;2023-04-03T04:01:30;34.45;33.14;35.77;;
41704;Laerm;861;48.808;9.006;2023-04-03T04:03:57;34.44;33.19;35.55;;
41704;Laerm;861;48.808;9.006;2023-04-03T04:06:24;34.44;33.11;35.66;;
41704;Laerm;861;48.808;9.006;2023-04-03T04:08:50;34.43;32.85;35.80;;
41704;Laerm;861;48.808;9.006;2023-04-03T04:11:17;34.42;33.10;35.64;;
41704;Laerm;861;48.808;9.006;2023-04-03T04:13:45;34.38;32.95;35.69;;
41704;Laerm;861;48.808;9.006;2023-04-03T04:16:11;34.39;33.22;35.52;;
41704;Laerm;861;48.808;9.006;2023-04-03T04:18:38;34.38;33.17;35.78;;
41704;Laerm;861;48.808;9.006;2023-04-03T04:21:05;34.38;33.14;35.47;;
41704;Laerm;861;48.808;9.006;2023-04-03T04:23:31;34.40;33.14;35.68;;
41704;Laerm;861;48.808;9.006;2023-04-03T04:25:58;34.41;33.21;35.60;;
41704;Laerm;861;48.808;9.006;2023-04-03T04:28:24;34.38;32.80;35.63;;
41704;Laerm;861;48.808;9.006;2023-04-03T04:30:51;34.37;33.04;35.55;;
41704;Laerm;861;48.808;9.006;2023-04-03T04:33:18;34.38;32.93;35.69;;
41704;Laerm;861;48.808;9.006;2023-04-03T04:35:47;34.35;33.10;35.60;;
41704;Laerm;861;48.808;9.006;2023-04-03T04:38:13;34.36;32.99;35.62;;
41704;Laerm;861;48.808;9.006;2023-04-03T04:40:40;34.34;32.95;35.71;;
41704;Laerm;861;48.808;9.006;2023-04-03T04:43:07;34.35;33.03;35.55;;
41704;Laerm;861;48.808;9.006;2023-04-03T04:45:34;34.34;33.16;35.86;;
41704;Laerm;861;48.808;9.006;2023-04-03T04:48:00;34.33;32.79;35.66;;
41704;Laerm;861;48.808;9.006;2023-04-03T04:50:27;34.30;32.80;35.79;;
41704;Laerm;861;48.808;9.006;2023-04-03T04:52:53;34.28;32.98;35.36;;
41704;Laerm;861;48.808;9.006;2023-04-03T04:55:20;34.29;32.93;35.50;;
41704;Laerm;861;48.808;9.006;2023-04-03T04:57:47;34.29;32.92;35.59;;
41704;Laerm;861;48.808;9.006;2023-04-03T05:00:14;34.32;33.11;35.44;;
41704;Laerm;861;48.808;9.006;2023-04-03T05:02:41;34.33;32.97;35.57;;
41704;Laerm;861;48.808;9.006;2023-04-03T05:05:08;34.32;32.77;35.77;;
41704;Laerm;861;48.808;9.006;2023-04-03T05:07:35;34.26;33.16;35.50;;
41704;Laerm;861;48.808;9.006;2023-04-03T05:10:03;34.24;32.93;35.61;;
41704;Laerm;861;48.808;9.006;2023-04-03T05:12:30;34.23;32.82;35.33;;
41704;Laerm;861;48.808;9.006;2023-04-03T05:14:56;34.24;33.09;35.43;;
41704;Laerm;861;48.808;9.006;2023-04-03T05:17:23;34.23;33.08;35.33;;
41704;Laerm;861;48.808;9.006;2023-04-03T05:19:49;34.26;33.18;35.66;;
41704;Laerm;861;48.808;9.006;2023-04-03T05:22:16;34.27;32.95;35.59;;
41704;Laerm;861;48.808;9.006;2023-04-03T05:24:42;34.25;32.88;35.66;;
41704;Laerm;861;48.808;9.006;2023-04-03T05:27:09;34.27;32.97;35.37;;
41704;Laerm;861;48.808;9.006;2023-04-03T05:29:36;34.25;33.14;35.41;;
41704;Laerm;861;48.808;9.006;2023-04-03T05:32:03;34.24;33.06;35.59;;
41704;Laerm;861;48.808;9.006;2023-04-03T05:34:29;34.24;32.97;35.35;;
41704;Laerm;861;48.808;9.006;2023-04-03T05:36:56;34.24;32.86;35.57;;
41704;Laerm;861;48.808;9.006;2023-04-03T05:39:22;34.23;32.96;35.43;;
41704;Laerm;861;48.808;9.006;2023-04-03T05:41:49;34.22;32.93;35.56;;
41704;Laerm;861;48.808;9.006;2023-04-03T05:44:16;34.21;32.89;35.52;;
41704;Laerm;861;48.808;9.006;2023-04-03T05:46:43;34.22;32.94;35.52;;
41704;Laerm;861;48.808;9.006;2023-04-03T05:49:09;34.24;33.01;35.44;;
41704;Laerm;861;48.808;9.006;2023-04-03T05:51:39;34.24;32.97;35.39;;
41704;Laerm;861;48.808;9.006;2023-04-03T05:54:19;34.24;32.83;35.64;;
41704;Laerm;861;48.808;9.006;2023-04-03T05:56:47;34.25;33.04;35.50;;
41704;Laerm;861;48.808;9.006;2023-04-03T05:59:13;34.25;32.76;35.55;;
41704;Laerm;861;48.808;9.006;2023-04-03T06:01:40;34.24;32.91;35.41;;
41704;Laerm;861;48.808;9.006;2023-04-03T06:04:07;34.24;32.76;35.56;;
41704;Laerm;861;48.808;9.006;2023-04-03T06:07:04;34.23;33.01;35.48;;
41704;Laerm;861;48.808;9.006;2023-04-03T06:09:31;34.24;32.63;35.49;;
41704;Laerm;861;48.808;9.006;2023-04-03T06:11:58;34.24;33.00;35.35;;
41704;Laerm;861;48.808;9.006;2023-04-03T06:14:26;34.24;33.01;35.49;;
41704;Laerm;861;48.808;9.006;2023-04-03T06:16:54;34.25;32.98;35.48;;
41704;Laerm;861;48.808;9.006;2023-04-03T06:19:21;34.27;32.97;35.75;;
41704;Laerm;861;48.808;9.006;2023-04-03T06:21:48;34.27;32.98;35.55;;
41704;Laerm;861;48.808;9.006;2023-04-03T06:24:17;34.26;33.01;35.53;;
41704;Laerm;861;48.808;9.006;2023-04-03T06:26:44;34.25;32.94;35.62;;
41704;Laerm;861;48.808;9.006;2023-04-03T06:29:12;34.26;33.02;35.52;;
41704;Laerm;861;48.808;9.006;2023-04-03T06:31:38;34.27;32.97;35.53;;
41704;Laerm;861;48.808;9.006;2023-04-03T06:34:05;34.26;33.02;35.68;;
41704;Laerm;861;48.808;9.006;2023-04-03T06:36:33;34.26;32.92;35.52;;
41704;Laerm;861;48.808;9.006;2023-04-03T06:39:01;34.27;32.93;35.50;;
41704;Laerm;861;48.808;9.006;2023-04-03T06:41:29;34.28;33.08;35.34;;
41704;Laerm;861;48.808;9.006;2023-04-03T06:43:56;34.27;33.12;35.44;;
41704;Laerm;861;48.808;9.006;2023-04-03T06:46:26;34.29;33.11;35.41;;
41704;Laerm;861;48.808;9.006;2023-04-03T06:48:53;34.28;33.03;35.61;;
41704;Laerm;861;48.808;9.006;2023-04-03T06:51:27;34.28;33.00;35.59;;
41704;Laerm;861;48.808;9.006;2023-04-03T06:53:58;34.28;33.11;35.57;;
41704;Laerm;861;48.808;9.006;2023-04-03T06:56:27;34.29;33.06;35.53;;
41704;Laerm;861;48.808;9.006;2023-04-03T06:58:55;34.31;32.93;35.57;;
41704;Laerm;861;48.808;9.006;2023-04-03T07:01:27;34.31;33.07;35.50;;
41704;Laerm;861;48.808;9.006;2023-04-03T07:03:55;34.31;32.92;35.54;;
41704;Laerm;861;48.808;9.006;2023-04-03T07:06:23;34.32;32.91;35.56;;
41704;Laerm;861;48.808;9.006;2023-04-03T07:08:49;34.31;32.90;35.56;;
41704;Laerm;861;48.808;9.006;2023-04-03T07:11:16;34.34;32.98;35.56;;
41704;Laerm;861;48.808;9.006;2023-04-03T07:13:43;34.31;32.96;35.56;;
41704;Laerm;861;48.808;9.006;2023-04-03T07:16:12;34.31;33.11;35.51;;
41704;Laerm;861;48.808;9.006;2023-04-03T07:18:38;34.31;32.73;35.49;;
41704;Laerm;861;48.808;9.006;2023-04-03T07:21:05;34.33;32.98;35.45;;
41704;Laerm;861;48.808;9.006;2023-04-03T07:23:32;34.32;33.00;35.64;;
41704;Laerm;861;48.808;9.006;2023-04-03T07:25:59;34.32;33.21;35.66;;
41704;Laerm;861;48.808;9.006;2023-04-03T07:28:26;34.33;33.04;35.77;;
41704;Laerm;861;48.808;9.006;2023-04-03T07:31:04;34.37;33.01;35.44;;
41704;Laerm;861;48.808;9.006;2023-04-03T07:33:32;34.39;33.11;35.93;;
41704;Laerm;861;48.808;9.006;2023-04-03T07:35:59;34.37;32.65;35.67;;
41704;Laerm;861;48.808;9.006;2023-04-03T07:38:27;34.43;33.20;35.55;;
41704;Laerm;861;48.808;9.006;2023-04-03T07:40:54;34.42;33.14;35.51;;
41704;Laerm;861;48.808;9.006;2023-04-03T07:43:22;34.45;32.91;39.21;;
41704;Laerm;861;48.808;9.006;2023-04-03T07:45:51;34.44;33.16;35.73;;
41704;Laerm;861;48.808;9.006;2023-04-03T07:48:26;34.45;33.22;35.72;;
41704;Laerm;861;48.808;9.006;2023-04-03T07:50:53;34.46;33.08;35.98;;
41704;Laerm;861;48.808;9.006;2023-04-03T07:53:22;34.47;33.21;35.88;;
41704;Laerm;861;48.808;9.006;2023-04-03T07:55:50;34.49;33.20;35.66;;
41704;Laerm;861;48.808;9.006;2023-04-03T07:58:24;34.52;33.25;35.73;;
41704;Laerm;861;48.808;9.006;2023-04-03T08:00:51;34.54;33.13;35.79;;
41704;Laerm;861;48.808;9.006;2023-04-03T08:03:17;34.52;33.28;35.74;;
41704;Laerm;861;48.808;9.006;2023-04-03T08:05:48;34.50;33.16;35.94;;
41704;Laerm;861;48.808;9.006;2023-04-03T08:08:22;34.49;33.29;36.71;;
41704;Laerm;861;48.808;9.006;2023-04-03T08:10:54;34.54;33.30;35.89;;
41704;Laerm;861;48.808;9.006;2023-04-03T08:13:22;34.55;33.14;39.11;;
41704;Laerm;861;48.808;9.006;2023-04-03T08:15:49;34.54;33.35;35.74;;
41704;Laerm;861;48.808;9.006;2023-04-03T08:18:16;34.59;33.21;36.05;;
41704;Laerm;861;48.808;9.006;2023-04-03T08:20:45;34.57;33.31;35.75;;
41704;Laerm;861;48.808;9.006;2023-04-03T08:23:12;34.57;33.26;35.93;;
41704;Laerm;861;48.808;9.006;2023-04-03T08:25:42;34.54;33.25;35.90;;
41704;Laerm;861;48.808;9.006;2023-04-03T08:28:11;34.51;33.25;35.68;;
41704;Laerm;861;48.808;9.006;2023-04-03T08:30:42;34.52;33.28;35.75;;
41704;Laerm;861;48.808;9.006;2023-04-03T08:33:11;34.59;33.29;35.92;;
41704;Laerm;861;48.808;9.006;2023-04-03T08:35:42;34.59;33.08;35.74;;
41704;Laerm;861;48.808;9.006;2023-04-03T08:38:10;34.64;33.40;35.90;;
41704;Laerm;861;48.808;9.006;2023-04-03T08:40:37;34.65;33.30;35.74;;
41704;Laerm;861;48.808;9.006;2023-04-03T08:43:37;34.63;33.44;35.97;;
41704;Laerm;861;48.808;9.006;2023-04-03T08:46:16;34.69;33.33;36.05;;
41704;Laerm;861;48.808;9.006;2023-04-03T08:48:48;34.75;33.40;35.95;;
41704;Laerm;861;48.808;9.006;2023-04-03T08:51:22;34.76;33.18;35.98;;
41704;Laerm;861;48.808;9.006;2023-04-03T08:54:05;34.81;33.02;36.02;;
41704;Laerm;861;48.808;9.006;2023-04-03T08:56:35;34.81;33.59;36.03;;
41704;Laerm;861;48.808;9.006;2023-04-03T08:59:21;34.83;33.45;36.06;;
41704;Laerm;861;48.808;9.006;2023-04-03T09:01:51;34.88;33.73;36.05;;
41704;Laerm;861;48.808;9.006;2023-04-03T09:04:18;34.95;33.60;36.18;;
41704;Laerm;861;48.808;9.006;2023-04-03T09:07:02;35.05;33.57;36.33;;
41704;Laerm;861;48.808;9.006;2023-04-03T09:09:42;35.11;33.82;36.30;;
41704;Laerm;861;48.808;9.006;2023-04-03T09:12:27;35.18;33.82;36.24;;
41704;Laerm;861;48.808;9.006;2023-04-03T09:15:24;35.23;33.91;38.06;;
41704;Laerm;861;48.808;9.006;2023-04-03T09:18:12;35.23;34.05;39.17;;
41704;Laerm;861;48.808;9.006;2023-04-03T09:21:17;35.26;33.88;36.44;;
41704;Laerm;861;48.808;9.006;2023-04-03T09:23:56;35.29;34.10;36.65;;
41704;Laerm;861;48.808;9.006;2023-04-03T09:26:53;35.29;34.09;36.38;;
41704;Laerm;861;48.808;9.006;2023-04-03T09:29:25;35.23;33.93;36.45;;
41704;Laerm;861;48.808;9.006;2023-04-03T09:32:18;35.28;33.85;36.53;;
41704;Laerm;861;48.808;9.006;2023-04-03T09:34:47;35.30;33.98;36.37;;
41704;Laerm;861;48.808;9.006;2023-04-03T09:37:42;35.30;33.98;36.56;;
41704;Laerm;861;48.808;9.006;2023-04-03T09:40:33;35.32;33.91;36.63;;
41704;Laerm;861;48.808;9.006;2023-04-03T09:43:22;35.29;34.11;36.38;;
41704;Laerm;861;48.808;9.006;2023-04-03T09:45:52;35.29;33.99;36.45;;
41704;Laerm;861;48.808;9.006;2023-04-03T09:48:25;35.28;34.02;36.46;;
41704;Laerm;861;48.808;9.006;2023-04-03T09:51:01;35.23;33.85;36.42;;
41704;Laerm;861;48.808;9.006;2023-04-03T09:53:43;35.17;33.95;36.35;;
41704;Laerm;861;48.808;9.006;2023-04-03T09:59:13;35.21;34.06;36.42;;
41704;Laerm;861;48.808;9.006;2023-04-03T10:02:21;35.28;34.01;36.75;;
41704;Laerm;861;48.808;9.006;2023-04-03T10:05:41;35.45;34.23;36.79;;
41704;Laerm;861;48.808;9.006;2023-04-03T10:08:19;35.65;34.38;36.91;;
41704;Laerm;861;48.808;9.006;2023-04-03T10:31:27;35.94;34.65;39.84;;
41704;Laerm;861;48.808;9.006;2023-04-03T10:34:40;35.91;34.59;37.14;;
41704;Laerm;861;48.808;9.006;2023-04-03T10:37:38;35.87;34.64;37.20;;
41704;Laerm;861;48.808;9.006;2023-04-03T10:44:14;36.00;34.70;37.14;;
41704;Laerm;861;48.808;9.006;2023-04-03T10:46:58;36.03;34.78;37.22;;
41704;Laerm;861;48.808;9.006;2023-04-03T10:50:22;36.04;34.78;37.22;;
41704;Laerm;861;48.808;9.006;2023-04-03T10:53:45;36.03;34.80;37.31;;
41704;Laerm;861;48.808;9.006;2023-04-03T10:56:38;36.05;34.72;37.10;;
41704;Laerm;861;48.808;9.006;2023-04-03T11:02:17;36.16;34.88;37.37;;
41704;Laerm;861;48.808;9.006;2023-04-03T11:07:46;36.13;34.75;37.30;;
41704;Laerm;861;48.808;9.006;2023-04-03T11:10:45;36.11;34.73;37.34;;
41704;Laerm;861;48.808;9.006;2023-04-03T11:13:45;36.09;34.86;37.41;;
41704;Laerm;861;48.808;9.006;2023-04-03T11:17:04;36.10;34.79;37.35;;
41704;Laerm;861;48.808;9.006;2023-04-03T11:22:56;36.07;34.82;37.34;;
41704;Laerm;861;48.808;9.006;2023-04-03T11:25:29;36.01;34.81;37.10;;
41704;Laerm;861;48.808;9.006;2023-04-03T11:28:01;36.03;34.74;37.22;;
41704;Laerm;861;48.808;9.006;2023-04-03T11:36:23;36.11;34.71;37.28;;
41704;Laerm;861;48.808;9.006;2023-04-03T11:39:10;36.14;34.74;37.34;;
41704;Laerm;861;48.808;9.006;2023-04-03T11:41:43;36.21;34.87;37.44;;
41704;Laerm;861;48.808;9.006;2023-04-03T11:44:37;36.22;34.93;37.43;;
41704;Laerm;861;48.808;9.006;2023-04-03T11:47:10;36.26;34.99;37.40;;
41704;Laerm;861;48.808;9.006;2023-04-03T11:50:03;36.27;35.15;37.45;;
41704;Laerm;861;48.808;9.006;2023-04-03T12:11:19;36.27;34.96;37.74;;
41704;Laerm;861;48.808;9.006;2023-04-03T12:16:42;36.28;34.92;37.61;;
41704;Laerm;861;48.808;9.006;2023-04-03T12:19:39;36.30;34.89;37.65;;
41704;Laerm;861;48.808;9.006;2023-04-03T12:22:17;36.36;34.75;37.70;;
41704;Laerm;861;48.808;9.006;2023-04-03T12:24:52;36.36;35.04;37.49;;
41704;Laerm;861;48.808;9.006;2023-04-03T12:27:41;36.42;35.20;37.52;;
41704;Laerm;861;48.808;9.006;2023-04-03T12:30:27;36.43;34.84;37.61;;
41704;Laerm;861;48.808;9.006;2023-04-03T12:46:53;36.72;35.41;38.13;;
41704;Laerm;861;48.808;9.006;2023-04-03T12:49:40;36.75;35.44;38.08;;
41704;Laerm;861;48.808;9.006;2023-04-03T12:52:51;36.75;35.14;38.03;;
41704;Laerm;861;48.808;9.006;2023-04-03T12:55:21;36.77;35.20;38.09;;
41704;Laerm;861;48.808;9.006;2023-04-03T12:57:48;36.77;35.03;38.04;;
41704;Laerm;861;48.808;9.006;2023-04-03T13:00:36;36.78;35.55;38.14;;
41704;Laerm;861;48.808;9.006;2023-04-03T13:03:25;36.78;35.43;37.88;;
41704;Laerm;861;48.808;9.006;2023-04-03T13:06:00;36.78;35.46;38.82;;
41704;Laerm;861;48.808;9.006;2023-04-03T13:08:28;36.78;35.20;38.01;;
41704;Laerm;861;48.808;9.006;2023-04-03T13:11:11;36.77;35.34;37.98;;
41704;Laerm;861;48.808;9.006;2023-04-03T13:13:38;36.74;35.50;38.11;;
41704;Laerm;861;48.808;9.006;2023-04-03T13:16:11;36.74;35.32;37.95;;
41704;Laerm;861;48.808;9.006;2023-04-03T13:18:52;36.74;35.47;37.90;;
41704;Laerm;861;48.808;9.006;2023-04-03T13:21:28;36.75;35.50;37.90;;
41704;Laerm;861;48.808;9.006;2023-04-03T13:24:02;36.72;35.39;37.94;;
41704;Laerm;861;48.808;9.006;2023-04-03T13:26:33;36.72;35.41;37.98;;
41704;Laerm;861;48.808;9.006;2023-04-03T13:29:20;36.71;35.32;37.94;;
41704;Laerm;861;48.808;9.006;2023-04-03T13:31:55;36.70;35.40;37.84;;
41704;Laerm;861;48.808;9.006;2023-04-03T13:34:29;36.71;35.16;37.99;;
41704;Laerm;861;48.808;9.006;2023-04-03T13:37:01;36.72;35.44;37.92;;
41704;Laerm;861;48.808;9.006;2023-04-03T13:39:35;36.72;35.36;38.06;;
41704;Laerm;861;48.808;9.006;2023-04-03T13:42:27;36.71;35.33;37.96;;
41704;Laerm;861;48.808;9.006;2023-04-03T13:45:27;36.70;35.49;38.02;;
41704;Laerm;861;48.808;9.006;2023-04-03T13:48:20;36.71;35.25;37.84;;
41704;Laerm;861;48.808;9.006;2023-04-03T13:51:17;36.71;35.52;37.86;;
41704;Laerm;861;48.808;9.006;2023-04-03T13:53:57;36.70;35.48;37.97;;
41704;Laerm;861;48.808;9.006;2023-04-03T13:56:40;36.70;35.23;37.91;;
41704;Laerm;861;48.808;9.006;2023-04-03T14:01:54;36.71;35.48;38.09;;
41704;Laerm;861;48.808;9.006;2023-04-03T14:04:58;36.74;35.57;38.12;;
41704;Laerm;861;48.808;9.006;2023-04-03T14:07:30;36.74;35.55;38.08;;
41704;Laerm;861;48.808;9.006;2023-04-03T14:09:57;36.74;35.37;37.92;;
41704;Laerm;861;48.808;9.006;2023-04-03T14:12:37;36.75;35.59;38.05;;
41704;Laerm;861;48.808;9.006;2023-04-03T14:15:25;36.73;35.38;38.09;;
41704;Laerm;861;48.808;9.006;2023-04-03T14:17:53;36.73;35.56;38.04;;
41704;Laerm;861;48.808;9.006;2023-04-03T14:20:26;36.70;35.27;38.59;;
41704;Laerm;861;48.808;9.006;2023-04-03T14:22:54;36.70;35.43;37.91;;
41704;Laerm;861;48.808;9.006;2023-04-03T14:25:22;36.69;35.34;37.92;;
41704;Laerm;861;48.808;9.006;2023-04-03T14:27:53;36.70;35.38;38.03;;
41704;Laerm;861;48.808;9.006;2023-04-03T14:30:33;36.69;35.18;37.87;;
41704;Laerm;861;48.808;9.006;2023-04-03T14:33:01;36.68;35.39;38.05;;
41704;Laerm;861;48.808;9.006;2023-04-03T14:35:28;36.67;35.18;37.86;;
41704;Laerm;861;48.808;9.006;2023-04-03T14:37:55;36.68;35.07;38.10;;
41704;Laerm;861;48.808;9.006;2023-04-03T14:40:27;36.68;35.44;37.90;;
41704;Laerm;861;48.808;9.006;2023-04-03T14:42:55;36.67;35.44;37.90;;
41704;Laerm;861;48.808;9.006;2023-04-03T14:45:23;36.67;35.36;38.09;;
41704;Laerm;861;48.808;9.006;2023-04-03T14:47:55;36.68;35.48;37.93;;
41704;Laerm;861;48.808;9.006;2023-04-03T14:50:27;36.65;35.30;38.03;;
41704;Laerm;861;48.808;9.006;2023-04-03T14:52:58;36.64;35.32;37.75;;
41704;Laerm;861;48.808;9.006;2023-04-03T14:55:26;36.62;35.26;40.49;;
41704;Laerm;861;48.808;9.006;2023-04-03T14:57:55;36.62;35.34;37.96;;
41704;Laerm;861;48.808;9.006;2023-04-03T15:00:23;36.62;35.26;37.90;;
41704;Laerm;861;48.808;9.006;2023-04-03T15:02:49;36.63;35.06;38.05;;
41704;Laerm;861;48.808;9.006;2023-04-03T15:05:17;36.64;35.30;38.03;;
41704;Laerm;861;48.808;9.006;2023-04-03T15:07:55;36.66;35.39;40.76;;
41704;Laerm;861;48.808;9.006;2023-04-03T15:10:31;36.68;35.30;37.88;;
41704;Laerm;861;48.808;9.006;2023-04-03T15:12:58;36.77;35.47;38.73;;
41704;Laerm;861;48.808;9.006;2023-04-03T15:15:29;36.94;35.56;53.06;;
41704;Laerm;861;48.808;9.006;2023-04-03T15:17:58;36.76;35.41;44.40;;
41704;Laerm;861;48.808;9.006;2023-04-03T15:20:29;36.52;35.13;37.78;;
41704;Laerm;861;48.808;9.006;2023-04-03T15:22:57;36.42;34.83;37.63;;
41704;Laerm;861;48.808;9.006;2023-04-03T15:25:28;36.40;35.09;37.61;;
41704;Laerm;861;48.808;9.006;2023-04-03T15:27:58;36.41;34.97;37.95;;
41704;Laerm;861;48.808;9.006;2023-04-03T15:30:26;36.34;35.14;37.70;;
41704;Laerm;861;48.808;9.006;2023-04-03T15:32:52;36.30;34.71;41.07;;
41704;Laerm;861;48.808;9.006;2023-04-03T15:35:19;36.29;34.79;37.50;;
41704;Laerm;861;48.808;9.006;2023-04-03T15:37:46;36.39;35.04;37.72;;
41704;Laerm;861;48.808;9.006;2023-04-03T15:40:15;36.50;35.10;37.69;;
41704;Laerm;861;48.808;9.006;2023-04-03T15:42:42;36.63;35.26;38.03;;
41704;Laerm;861;48.808;9.006;2023-04-03T15:45:10;36.51;35.22;37.77;;
41704;Laerm;861;48.808;9.006;2023-04-03T15:47:37;36.55;35.20;37.83;;
41704;Laerm;861;48.808;9.006;2023-04-03T15:50:05;36.35;34.97;37.71;;
41704;Laerm;861;48.808;9.006;2023-04-03T15:52:34;36.29;34.92;37.64;;
41704;Laerm;861;48.808;9.006;2023-04-03T15:56:15;36.28;34.85;37.58;;
41704;Laerm;861;48.808;9.006;2023-04-03T15:58:42;36.23;35.01;37.69;;
41704;Laerm;861;48.808;9.006;2023-04-03T16:08:53;36.21;34.70;37.48;;
41704;Laerm;861;48.808;9.006;2023-04-03T16:39:13;36.41;34.96;37.80;;
41704;Laerm;861;48.808;9.006;2023-04-03T16:41:40;36.41;35.10;37.92;;
41704;Laerm;861;48.808;9.006;2023-04-03T16:56:10;36.01;34.40;37.31;;
41704;Laerm;861;48.808;9.006;2023-04-03T16:58:52;36.03;34.57;37.22;;
41704;Laerm;861;48.808;9.006;2023-04-03T17:01:22;36.06;34.69;37.45;;